createdAt,value
2018-10-06T00:01:34.710Z,27.10
2018-10-06T00:04:03.206Z,27.20
2018-10-06T00:06:31.737Z,25.63
2018-10-06T00:09:00.237Z,25.63
2018-10-06T00:11:28.731Z,26.53
2018-10-06T00:13:57.213Z,25.13
2018-10-06T00:16:25.698Z,25.33
2018-10-06T00:18:54.192Z,24.93
2018-10-06T00:21:22.691Z,25.20
2018-10-06T00:23:51.177Z,25.60
2018-10-06T00:26:19.696Z,24.57
2018-10-06T00:28:48.188Z,25.43
2018-10-06T00:31:16.774Z,25.43
2018-10-06T00:33:45.475Z,24.53
2018-10-06T00:36:14.090Z,25.07
2018-10-06T00:38:42.571Z,24.87
2018-10-06T00:41:11.152Z,24.30
2018-10-06T00:43:39.690Z,24.87
2018-10-06T00:46:08.348Z,25.30
2018-10-06T00:48:36.830Z,26.87
2018-10-06T00:51:05.293Z,26.13
2018-10-06T00:53:33.775Z,24.90
2018-10-06T00:56:02.493Z,25.87
2018-10-06T00:58:30.970Z,26.30
2018-10-06T01:00:59.481Z,25.90
2018-10-06T01:03:28.016Z,26.23
2018-10-06T01:05:56.531Z,26.60
2018-10-06T01:08:25.015Z,25.33
2018-10-06T01:10:53.516Z,25.30
2018-10-06T01:13:22.073Z,25.20
2018-10-06T01:15:50.634Z,25.60
2018-10-06T01:18:19.118Z,24.20
2018-10-06T01:20:47.633Z,25.33
2018-10-06T01:23:16.124Z,25.70
2018-10-06T01:25:44.637Z,25.20
2018-10-06T01:28:13.140Z,25.50
2018-10-06T01:30:41.639Z,24.53
2018-10-06T01:33:10.132Z,25.83
2018-10-06T01:35:38.721Z,25.00
2018-10-06T01:38:07.217Z,23.80
2018-10-06T01:40:35.725Z,24.03
2018-10-06T01:43:04.453Z,24.20
2018-10-06T01:45:32.953Z,25.80
2018-10-06T01:48:01.569Z,23.73
2018-10-06T01:50:30.167Z,24.23
2018-10-06T01:52:58.667Z,22.57
2018-10-06T01:55:27.175Z,23.93
2018-10-06T01:57:55.687Z,25.10
2018-10-06T02:00:24.172Z,27.23
2018-10-06T02:02:52.641Z,26.07
2018-10-06T02:05:21.126Z,27.30
2018-10-06T02:07:49.626Z,26.13
2018-10-06T02:10:18.181Z,27.20
2018-10-06T02:12:46.780Z,25.47
2018-10-06T02:15:15.280Z,26.07
2018-10-06T02:17:43.776Z,25.77
2018-10-06T02:20:12.296Z,24.33
2018-10-06T02:22:40.789Z,23.73
2018-10-06T02:25:09.304Z,24.63
2018-10-06T02:27:38.035Z,24.47
2018-10-06T02:30:06.654Z,24.60
2018-10-06T02:32:35.164Z,24.97
2018-10-06T02:35:03.666Z,23.80
2018-10-06T02:37:32.142Z,24.13
2018-10-06T02:40:00.662Z,25.03
2018-10-06T02:42:29.160Z,24.67
2018-10-06T02:44:57.646Z,25.30
2018-10-06T02:47:26.120Z,23.50
2018-10-06T02:49:54.638Z,23.70
2018-10-06T02:52:23.146Z,24.60
2018-10-06T02:54:51.612Z,24.23
2018-10-06T02:57:20.300Z,23.33
2018-10-06T02:59:48.774Z,24.50
2018-10-06T03:02:17.288Z,23.33
2018-10-06T03:04:45.842Z,24.03
2018-10-06T03:07:14.419Z,24.60
2018-10-06T03:09:43.038Z,24.90
2018-10-06T03:12:11.785Z,24.30
2018-10-06T03:14:40.303Z,25.53
2018-10-06T03:17:09.082Z,23.87
2018-10-06T03:19:37.645Z,24.53
2018-10-06T03:22:06.419Z,23.50
2018-10-06T03:24:34.911Z,25.00
2018-10-06T03:27:03.411Z,24.60
2018-10-06T03:29:31.912Z,24.60
2018-10-06T03:32:00.431Z,25.10
2018-10-06T03:34:29.091Z,24.63
2018-10-06T03:36:57.597Z,24.93
2018-10-06T03:39:26.091Z,26.40
2018-10-06T03:41:54.581Z,25.30
2018-10-06T03:44:23.114Z,25.47
2018-10-06T03:46:51.652Z,26.93
2018-10-06T03:49:20.151Z,25.60
2018-10-06T03:51:48.638Z,25.43
2018-10-06T03:54:17.135Z,25.53
2018-10-06T03:56:45.598Z,23.53
2018-10-06T03:59:14.306Z,25.23
2018-10-06T04:01:42.804Z,24.83
2018-10-06T04:04:11.282Z,25.97
2018-10-06T04:06:39.806Z,24.47
2018-10-06T04:09:08.827Z,23.80
2018-10-06T04:11:37.443Z,24.40
2018-10-06T04:14:06.429Z,23.83
2018-10-06T04:16:34.933Z,25.00
2018-10-06T04:19:03.452Z,25.63
2018-10-06T04:21:42.036Z,26.50
2018-10-06T04:24:10.508Z,26.27
2018-10-06T04:26:39.056Z,25.67
2018-10-06T04:29:07.871Z,25.10
2018-10-06T04:31:36.397Z,25.13
2018-10-06T04:34:04.869Z,26.50
2018-10-06T04:36:33.466Z,24.43
2018-10-06T04:39:02.323Z,24.63
2018-10-06T04:41:30.793Z,25.57
2018-10-06T04:43:59.282Z,25.77
2018-10-06T04:46:27.795Z,25.50
2018-10-06T04:48:56.227Z,25.97
2018-10-06T04:51:24.677Z,26.47
2018-10-06T04:53:53.120Z,26.30
2018-10-06T04:56:21.561Z,27.13
2018-10-06T04:58:50.011Z,25.73
2018-10-06T05:01:18.472Z,26.33
2018-10-06T05:03:46.937Z,27.73
2018-10-06T05:06:15.391Z,28.67
2018-10-06T05:08:43.807Z,28.53
2018-10-06T05:11:12.263Z,27.97
2018-10-06T05:13:41.149Z,28.33
2018-10-06T05:16:09.650Z,26.97
2018-10-06T05:18:38.223Z,27.80
2018-10-06T05:21:07.209Z,28.87
2018-10-06T05:23:35.741Z,28.33
2018-10-06T05:26:04.373Z,29.33
2018-10-06T05:28:32.913Z,27.30
2018-10-06T05:31:01.373Z,27.47
2018-10-06T05:33:30.064Z,28.73
2018-10-06T05:35:58.541Z,28.67
2018-10-06T05:38:27.056Z,27.57
2018-10-06T05:40:55.533Z,29.03
2018-10-06T05:43:24.236Z,30.10
2018-10-06T05:45:52.733Z,28.10
2018-10-06T05:48:21.230Z,28.63
2018-10-06T05:50:49.733Z,27.77
2018-10-06T05:53:18.236Z,28.20
2018-10-06T05:55:46.812Z,28.77
2018-10-06T05:58:15.485Z,28.97
2018-10-06T06:00:44.060Z,29.17
2018-10-06T06:03:12.718Z,27.50
2018-10-06T06:05:41.272Z,27.93
2018-10-06T06:08:09.775Z,27.43
2018-10-06T06:10:38.379Z,28.07
2018-10-06T06:13:07.240Z,27.33
2018-10-06T06:15:35.773Z,26.57
2018-10-06T06:18:04.386Z,26.27
2018-10-06T06:20:34.058Z,25.97
2018-10-06T06:23:02.831Z,27.23
2018-10-06T06:25:31.311Z,26.47
2018-10-06T06:27:59.819Z,25.63
2018-10-06T06:30:28.311Z,26.10
2018-10-06T06:33:03.975Z,25.33
2018-10-06T06:35:32.607Z,24.87
2018-10-06T06:38:01.098Z,23.73
2018-10-06T06:40:29.555Z,24.03
2018-10-06T06:42:58.104Z,23.97
2018-10-06T06:45:26.627Z,23.90
2018-10-06T06:47:55.178Z,22.73
2018-10-06T06:50:23.758Z,23.20
2018-10-06T06:52:52.195Z,23.93
2018-10-06T06:55:21.005Z,23.10
2018-10-06T06:57:49.484Z,22.90
2018-10-06T07:00:18.236Z,22.40
2018-10-06T07:02:46.756Z,22.53
2018-10-06T07:05:15.579Z,29.43
2018-10-06T07:07:44.173Z,36.50
2018-10-06T07:10:12.858Z,27.97
2018-10-06T07:12:41.677Z,23.43
2018-10-06T07:15:10.161Z,20.70
2018-10-06T07:17:38.586Z,19.90
2018-10-06T07:20:07.098Z,19.50
2018-10-06T07:22:35.700Z,19.47
2018-10-06T07:25:04.178Z,19.83
2018-10-06T07:27:32.722Z,19.33
2018-10-06T07:30:01.182Z,19.20
2018-10-06T07:32:29.762Z,20.10
2018-10-06T07:34:58.480Z,19.63
2018-10-06T07:37:27.004Z,19.77
2018-10-06T07:39:55.508Z,19.03
2018-10-06T07:42:24.102Z,19.63
2018-10-06T07:44:52.633Z,20.67
2018-10-06T07:47:21.298Z,19.27
2018-10-06T07:49:49.898Z,20.00
2018-10-06T07:52:18.354Z,19.20
2018-10-06T07:54:46.883Z,18.87
2018-10-06T07:57:15.330Z,19.40
2018-10-06T07:59:43.760Z,19.73
2018-10-06T08:02:12.327Z,19.50
2018-10-06T08:04:40.867Z,18.70
2018-10-06T08:07:09.306Z,18.47
2018-10-06T08:09:37.795Z,17.77
2018-10-06T08:12:06.621Z,18.33
2018-10-06T08:14:35.271Z,18.17
2018-10-06T08:17:03.858Z,17.37
2018-10-06T08:19:32.506Z,16.50
2018-10-06T08:22:01.059Z,16.47
2018-10-06T08:24:29.603Z,15.50
2018-10-06T08:26:58.415Z,15.47
2018-10-06T08:29:27.091Z,15.03
2018-10-06T08:31:55.713Z,15.27
2018-10-06T08:34:24.298Z,15.30
2018-10-06T08:36:53.017Z,15.57
2018-10-06T08:41:56.439Z,15.00
2018-10-06T08:44:24.896Z,14.90
2018-10-06T08:46:53.474Z,14.87
2018-10-06T08:49:22.118Z,14.30
2018-10-06T08:51:51.170Z,14.10
2018-10-06T08:54:19.778Z,14.90
2018-10-06T08:56:48.276Z,13.33
2018-10-06T08:59:16.777Z,14.07
2018-10-06T09:01:45.235Z,14.47
2018-10-06T09:04:13.763Z,14.20
2018-10-06T09:06:42.223Z,14.70
2018-10-06T09:09:10.743Z,13.33
2018-10-06T09:11:39.233Z,14.10
2018-10-06T09:14:07.707Z,14.33
2018-10-06T09:16:36.143Z,13.83
2018-10-06T09:19:04.952Z,14.47
2018-10-06T09:21:33.540Z,13.80
2018-10-06T09:24:02.111Z,13.80
2018-10-06T09:26:30.663Z,13.10
2018-10-06T09:28:59.176Z,14.33
2018-10-06T09:31:27.756Z,14.80
2018-10-06T09:33:56.237Z,14.33
2018-10-06T09:36:24.850Z,13.90
2018-10-06T09:38:53.381Z,13.73
2018-10-06T09:41:21.983Z,14.00
2018-10-06T09:43:50.498Z,13.67
2018-10-06T09:46:19.266Z,13.30
2018-10-06T09:48:47.696Z,13.27
2018-10-06T09:51:16.495Z,13.27
2018-10-06T09:53:45.031Z,13.53
2018-10-06T09:56:13.653Z,14.00
2018-10-06T09:58:42.154Z,13.57
2018-10-06T10:01:15.959Z,14.67
2018-10-06T10:03:49.950Z,14.70
2018-10-06T10:06:18.689Z,14.13
2018-10-06T10:08:47.197Z,13.20
2018-10-06T10:11:15.773Z,13.63
2018-10-06T10:13:44.345Z,14.03
2018-10-06T10:16:12.959Z,14.40
2018-10-06T10:18:41.496Z,14.40
2018-10-06T10:21:10.017Z,15.20
2018-10-06T10:23:38.465Z,14.53
2018-10-06T10:26:07.060Z,13.80
2018-10-06T10:28:35.609Z,14.10
2018-10-06T10:31:04.061Z,14.70
2018-10-06T10:33:33.106Z,14.30
2018-10-06T10:36:01.597Z,14.20
2018-10-06T10:38:30.079Z,14.93
2018-10-06T10:40:58.639Z,14.57
2018-10-06T10:43:27.231Z,14.20
2018-10-06T10:45:55.767Z,15.07
2018-10-06T10:48:24.321Z,13.80
2018-10-06T10:50:52.883Z,14.60
2018-10-06T10:53:21.369Z,13.90
2018-10-06T10:55:49.908Z,14.73
2018-10-06T10:58:18.440Z,13.62
2018-10-06T11:00:47.002Z,14.43
2018-10-06T11:03:15.654Z,14.83
2018-10-06T11:05:44.270Z,14.63
2018-10-06T11:08:12.886Z,14.27
2018-10-06T11:10:41.364Z,13.67
2018-10-06T11:13:09.982Z,15.57
2018-10-06T11:15:38.520Z,15.80
2018-10-06T11:18:07.050Z,14.95
2018-10-06T11:20:35.596Z,15.28
2018-10-06T11:23:04.232Z,14.58
2018-10-06T11:25:32.726Z,14.50
2018-10-06T11:28:01.199Z,14.33
2018-10-06T11:30:29.691Z,14.43
2018-10-06T11:32:58.196Z,14.43
2018-10-06T11:35:26.735Z,14.55
2018-10-06T11:37:55.340Z,13.35
2018-10-06T11:40:23.894Z,13.05
2018-10-06T11:42:52.429Z,13.20
2018-10-06T11:45:20.927Z,13.50
2018-10-06T11:47:49.469Z,13.48
2018-10-06T11:50:18.039Z,12.33
2018-10-06T11:52:46.539Z,12.60
2018-10-06T11:55:15.093Z,13.43
2018-10-06T11:57:43.621Z,12.58
2018-10-06T12:00:12.486Z,12.93
2018-10-06T12:02:40.879Z,12.50
2018-10-06T12:05:09.447Z,12.78
2018-10-06T12:07:37.994Z,12.93
2018-10-06T12:10:06.984Z,12.63
2018-10-06T12:12:35.482Z,12.47
2018-10-06T12:15:04.182Z,11.38
2018-10-06T12:17:32.759Z,11.30
2018-10-06T12:20:01.319Z,11.00
2018-10-06T12:22:29.893Z,10.95
2018-10-06T12:24:58.559Z,10.58
2018-10-06T12:27:27.087Z,10.45
2018-10-06T12:29:55.623Z,11.08
2018-10-06T12:32:24.275Z,10.60
2018-10-06T12:34:53.097Z,11.12
2018-10-06T12:37:21.627Z,11.30
2018-10-06T12:39:50.258Z,11.38
2018-10-06T12:42:18.952Z,11.78
2018-10-06T12:44:47.557Z,12.47
2018-10-06T12:47:16.095Z,11.97
2018-10-06T12:49:44.604Z,13.03
2018-10-06T12:52:13.197Z,12.25
2018-10-06T12:54:41.752Z,11.95
2018-10-06T12:57:10.340Z,11.75
2018-10-06T12:59:38.880Z,12.13
2018-10-06T13:02:13.882Z,11.85
2018-10-06T13:04:42.518Z,10.70
2018-10-06T13:07:11.128Z,11.88
2018-10-06T13:09:39.611Z,12.53
2018-10-06T13:12:08.109Z,12.43
2018-10-06T13:14:36.612Z,11.55
2018-10-06T13:17:05.143Z,12.68
2018-10-06T13:19:33.769Z,12.43
2018-10-06T13:22:02.241Z,11.90
2018-10-06T13:24:30.725Z,11.93
2018-10-06T13:26:59.258Z,12.50
2018-10-06T13:29:27.781Z,12.43
2018-10-06T13:31:56.308Z,13.22
2018-10-06T13:34:24.751Z,12.65
2018-10-06T13:36:53.787Z,12.63
2018-10-06T13:39:22.406Z,11.40
2018-10-06T13:41:50.979Z,12.13
2018-10-06T13:44:19.579Z,11.30
2018-10-06T13:46:48.108Z,12.20
2018-10-06T13:49:16.595Z,11.30
2018-10-06T13:51:45.092Z,11.30
2018-10-06T13:54:13.714Z,12.27
2018-10-06T13:56:42.304Z,12.37
2018-10-06T13:59:10.782Z,11.93
2018-10-06T14:01:39.265Z,11.17
2018-10-06T14:04:07.760Z,11.47
2018-10-06T14:06:36.479Z,11.70
2018-10-06T14:09:05.549Z,11.50
2018-10-06T14:11:34.166Z,11.20
2018-10-06T14:14:02.620Z,9.80
2018-10-06T14:16:31.096Z,14.00
2018-10-06T14:18:59.545Z,18.07
2018-10-06T14:21:27.965Z,17.33
2018-10-06T14:23:56.390Z,17.83
2018-10-06T14:26:24.858Z,18.33
2018-10-06T14:28:53.361Z,18.27
2018-10-06T14:31:21.812Z,20.00
2018-10-06T14:33:50.296Z,19.77
2018-10-06T14:36:18.768Z,19.67
2018-10-06T14:38:47.228Z,19.43
2018-10-06T14:41:15.758Z,20.27
2018-10-06T14:43:44.621Z,21.20
2018-10-06T14:46:13.120Z,20.33
2018-10-06T14:48:41.661Z,20.53
2018-10-06T14:51:10.216Z,20.37
2018-10-06T14:53:38.866Z,20.40
2018-10-06T14:56:07.460Z,21.77
2018-10-06T14:58:35.970Z,21.67
2018-10-06T15:01:04.660Z,21.53
2018-10-06T15:03:33.262Z,21.77
2018-10-06T15:06:01.827Z,25.53
2018-10-06T15:08:30.355Z,22.90
2018-10-06T15:10:59.029Z,23.83
2018-10-06T15:13:27.567Z,23.50
2018-10-06T15:15:56.168Z,23.17
2018-10-06T15:18:24.675Z,23.43
2018-10-06T15:20:53.265Z,22.40
2018-10-06T15:23:21.715Z,25.37
2018-10-06T15:25:50.182Z,29.17
2018-10-06T15:28:18.631Z,32.63
2018-10-06T15:30:47.091Z,36.07
2018-10-06T15:33:15.555Z,42.33
2018-10-06T15:35:44.011Z,46.20
2018-10-06T15:38:12.643Z,50.90
2018-10-06T15:40:41.196Z,50.47
2018-10-06T15:43:09.768Z,53.43
2018-10-06T15:45:38.264Z,53.83
2018-10-06T15:48:06.889Z,58.30
2018-10-06T15:50:35.429Z,59.10
2018-10-06T15:53:04.171Z,57.07
2018-10-06T15:55:33.059Z,54.40
2018-10-06T15:58:01.589Z,53.77
2018-10-06T16:00:30.220Z,52.93
2018-10-06T16:02:58.812Z,50.23
2018-10-06T16:05:27.753Z,50.27
2018-10-06T16:07:56.330Z,49.60
2018-10-06T16:10:24.862Z,48.80
2018-10-06T16:12:53.461Z,51.83
2018-10-06T16:15:22.033Z,51.33
2018-10-06T16:17:50.923Z,51.87
2018-10-06T16:20:19.426Z,53.30
2018-10-06T16:22:48.069Z,52.00
2018-10-06T16:25:16.661Z,51.73
2018-10-06T16:27:45.496Z,52.63
2018-10-06T16:30:14.157Z,51.47
2018-10-06T16:32:42.747Z,51.87
2018-10-06T16:35:11.328Z,51.97
2018-10-06T16:37:39.891Z,51.10
2018-10-06T16:40:08.543Z,49.87
2018-10-06T16:42:37.098Z,49.30
2018-10-06T16:45:12.214Z,47.43
2018-10-06T16:47:40.779Z,47.43
2018-10-06T16:50:09.344Z,46.23
2018-10-06T16:52:37.891Z,47.30
2018-10-06T16:55:06.513Z,47.53
2018-10-06T16:57:35.183Z,45.37
2018-10-06T17:00:03.867Z,45.13
2018-10-06T17:02:32.415Z,45.40
2018-10-06T17:05:01.121Z,46.47
2018-10-06T17:07:29.799Z,46.97
2018-10-06T17:09:58.434Z,45.43
2018-10-06T17:12:27.003Z,44.13
2018-10-06T17:14:55.434Z,46.50
2018-10-06T17:17:23.937Z,44.13
2018-10-06T17:19:52.425Z,45.20
2018-10-06T17:22:20.913Z,44.90
2018-10-06T17:24:49.412Z,44.87
2018-10-06T17:27:17.914Z,45.00
2018-10-06T17:29:46.510Z,42.83
2018-10-06T17:32:15.176Z,43.77
2018-10-06T17:34:43.811Z,45.87
2018-10-06T17:37:12.352Z,44.63
2018-10-06T17:39:40.947Z,44.50
2018-10-06T17:42:09.675Z,44.77
2018-10-06T17:44:38.312Z,44.60
2018-10-06T17:47:07.542Z,49.07
2018-10-06T17:49:37.128Z,48.07
2018-10-06T17:52:07.809Z,44.53
2018-10-06T17:54:36.385Z,47.90
2018-10-06T17:57:08.380Z,47.27
2018-10-06T17:59:37.969Z,45.27
2018-10-06T18:02:07.317Z,49.30
2018-10-06T18:04:41.583Z,47.90
2018-10-06T18:07:10.920Z,50.23
2018-10-06T18:09:40.111Z,49.40
2018-10-06T18:12:22.214Z,48.77
2018-10-06T18:14:52.540Z,48.80
2018-10-06T18:17:21.118Z,51.60
2018-10-06T18:19:49.806Z,53.60
2018-10-06T18:22:18.719Z,53.37
2018-10-06T18:24:47.270Z,52.77
2018-10-06T18:27:15.811Z,55.87
2018-10-06T18:29:44.942Z,55.70
2018-10-06T18:32:13.377Z,57.07
2018-10-06T18:34:42.109Z,54.00
2018-10-06T18:37:10.715Z,56.47
2018-10-06T18:39:39.288Z,59.77
2018-10-06T18:42:07.841Z,58.57
2018-10-06T18:44:36.335Z,59.20
2018-10-06T18:47:04.849Z,59.43
2018-10-06T18:49:33.362Z,61.23
2018-10-06T18:52:01.911Z,65.70
2018-10-06T18:54:30.428Z,64.90
2018-10-06T18:56:58.934Z,65.13
2018-10-06T18:59:27.548Z,63.20
2018-10-06T19:01:56.132Z,64.43
2018-10-06T19:04:24.780Z,64.50
2018-10-06T19:06:53.215Z,66.67
2018-10-06T19:09:21.722Z,66.70
2018-10-06T19:11:50.250Z,63.50
2018-10-06T19:14:18.756Z,63.30
2018-10-06T19:16:47.300Z,59.07
2018-10-06T19:19:15.824Z,50.63
2018-10-06T19:21:44.327Z,44.70
2018-10-06T19:24:12.860Z,42.13
2018-10-06T19:26:41.411Z,39.80
2018-10-06T19:29:09.955Z,37.67
2018-10-06T19:31:38.474Z,36.63
2018-10-06T19:34:07.166Z,34.90
2018-10-06T19:36:35.665Z,33.23
2018-10-06T19:39:05.186Z,32.47
2018-10-06T19:41:33.699Z,30.93
2018-10-06T19:44:02.235Z,30.90
2018-10-06T19:46:30.763Z,31.77
2018-10-06T19:48:59.306Z,31.63
2018-10-06T19:51:28.071Z,32.43
2018-10-06T19:53:56.658Z,31.50
2018-10-06T19:56:25.370Z,31.13
2018-10-06T19:58:53.875Z,31.80
2018-10-06T20:01:22.373Z,32.40
2018-10-06T20:03:50.926Z,31.07
2018-10-06T20:06:19.324Z,30.13
2018-10-06T20:08:47.805Z,29.23
2018-10-06T20:11:16.275Z,26.33
2018-10-06T20:13:44.761Z,27.50
2018-10-06T20:16:13.235Z,25.23
2018-10-06T20:18:41.728Z,24.53
2018-10-06T20:21:10.183Z,23.80
2018-10-06T20:23:38.621Z,23.70
2018-10-06T20:26:07.597Z,23.17
2018-10-06T20:28:36.101Z,23.43
2018-10-06T20:31:04.607Z,22.50
2018-10-06T20:33:33.116Z,23.97
2018-10-06T20:36:01.591Z,23.83
2018-10-06T20:38:30.076Z,24.53
2018-10-06T20:40:58.534Z,23.60
2018-10-06T20:43:27.011Z,22.50
2018-10-06T20:45:55.465Z,22.00
2018-10-06T20:48:23.934Z,22.90
2018-10-06T20:50:52.435Z,23.60
2018-10-06T20:53:20.938Z,24.97
2018-10-06T20:55:49.418Z,23.07
2018-10-06T20:58:17.898Z,24.13
2018-10-06T21:00:46.340Z,23.03
2018-10-06T21:03:14.875Z,22.60
2018-10-06T21:05:43.332Z,22.47
2018-10-06T21:08:11.860Z,20.43
2018-10-06T21:10:40.342Z,21.53
2018-10-06T21:13:08.791Z,20.27
2018-10-06T21:15:37.581Z,19.60
2018-10-06T21:18:06.073Z,18.83
2018-10-06T21:20:34.753Z,19.40
2018-10-06T21:23:03.236Z,18.70
2018-10-06T21:25:31.722Z,16.17
2018-10-06T21:28:00.217Z,16.00
2018-10-06T21:30:28.726Z,16.30
2018-10-06T21:32:57.232Z,15.47
2018-10-06T21:35:25.730Z,14.43
2018-10-06T21:37:54.218Z,12.03
2018-10-06T21:40:22.768Z,11.97
2018-10-06T21:42:51.926Z,10.83
2018-10-06T21:45:20.386Z,11.47
2018-10-06T21:47:48.853Z,12.20
2018-10-06T21:50:17.340Z,10.83
2018-10-06T21:52:46.108Z,10.47
2018-10-06T21:55:15.632Z,10.90
2018-10-06T21:57:44.225Z,9.40
2018-10-06T22:00:13.407Z,10.20
2018-10-06T22:02:42.194Z,8.83
2018-10-06T22:05:10.797Z,8.40
2018-10-06T22:07:39.273Z,7.00
2018-10-06T22:10:08.436Z,7.33
2018-10-06T22:12:37.291Z,6.87
2018-10-06T22:15:06.024Z,7.23
2018-10-06T22:17:34.471Z,7.17
2018-10-06T22:20:03.035Z,6.17
2018-10-06T22:22:31.633Z,6.80
2018-10-06T22:25:00.187Z,5.93
2018-10-06T22:27:28.757Z,6.53
2018-10-06T22:29:57.275Z,5.73
2018-10-06T22:32:25.764Z,5.80
2018-10-06T22:34:54.272Z,5.73
2018-10-06T22:37:23.060Z,5.07
2018-10-06T22:39:51.523Z,5.60
2018-10-06T22:42:20.037Z,4.73
2018-10-06T22:44:48.517Z,4.90
2018-10-06T22:47:16.996Z,5.17
2018-10-06T22:49:45.553Z,5.13
2018-10-06T22:52:14.108Z,4.73
2018-10-06T22:54:42.617Z,4.63
2018-10-06T22:57:11.171Z,4.73
2018-10-06T22:59:39.735Z,4.67
2018-10-06T23:02:08.261Z,4.43
2018-10-06T23:04:36.784Z,4.43
2018-10-06T23:07:05.369Z,3.93
2018-10-06T23:09:33.834Z,3.60
2018-10-06T23:12:02.405Z,3.70
2018-10-06T23:14:30.873Z,2.90
2018-10-06T23:16:59.344Z,4.37
2018-10-06T23:19:27.854Z,3.80
2018-10-06T23:21:56.442Z,3.50
2018-10-06T23:24:25.053Z,3.57
2018-10-06T23:26:53.864Z,3.00
2018-10-06T23:29:22.350Z,2.43
2018-10-06T23:31:50.837Z,2.70
2018-10-06T23:34:19.317Z,3.40
2018-10-06T23:36:47.772Z,3.20
2018-10-06T23:39:16.233Z,2.97
2018-10-06T23:41:44.743Z,3.43
2018-10-06T23:44:13.241Z,2.43
2018-10-06T23:46:41.870Z,3.40
2018-10-06T23:49:10.404Z,4.10
2018-10-06T23:51:38.903Z,4.07
2018-10-06T23:54:07.358Z,3.50
2018-10-06T23:56:35.983Z,3.63
2018-10-06T23:59:04.454Z,3.10
